Fairbanks, AK

8:54 PM AKDT on July 06, 2015 (GMT -0800)
19th and Kennedy | | Change Station
CLOSE
Current Station
Personal Weather Station
Location: Fairbanks, AK
Elevation: 440 ft
Nearby Weather Stations

Elev 440 ft 64.83 °N, 147.80 °W | Updated 6 minutes ago

Mostly Cloudy
Mostly Cloudy
89.2 °F
Feels Like 88 °F
N
1.1
Wind Variable Wind from SSE

Today
High -- | Low -- °F
--% Chance of Precip.
Yesterday
High -- | Low -- °F
Precip. -- in
3:23 AM 0:25 AM
Waning Gibbous, 69% visible
Pressure 29.77 in
Visibility 10.0 miles
Clouds Few 6000 ft
Scattered Clouds 16000 ft
Mostly Cloudy 20000 ft
Heat Index 88 °F
Dew Point 58 °F
Humidity 35%
Rainfall 0.00 in
Snow Depth Not available.
UV 1 out of 12
Pollen Not available.
Air Quality Not available.
Flu Activity Not available.
METAR PAFA 070353Z 10004KT 10SM FEW060 SCT160 BKN200 31/12 A2976 RMK AO2 SLP080 T03060117

More Conditions Fewer Conditions

Pressure 29.77 in
Visibility 10.0 miles
Clouds Few 6000 ft
Scattered Clouds 16000 ft
Mostly Cloudy 20000 ft
Heat Index 88 °F
Dew Point 58 °F
Humidity 35%
Rainfall 0.00 in
Snow Depth Not available.
UV 1 out of 12
Pollen Not available.
Air Quality Not available.
Flu Activity Not available.
METAR PAFA 070353Z 10004KT 10SM FEW060 SCT160 BKN200 31/12 A2976 RMK AO2 SLP080 T03060117

More Conditions Fewer Conditions

10-Day Weather Forecast

×

Almanac

Astronomy

Jul. 06, 2015 Rise Set
Actual Time
Civil Twilight
Nautical Twilight
Astronomical Twilight
Moon
Length of Visible Light
Length of Day
Tomorrow will be .
, % of the Moon is Illuminated

Today's Extremes

State Highs State Lows

Community

WunderPhotos

Upload Photos

1,835,728 photos uploaded!

WunderBlogs® & News

Nearby

Air Quality

  Air Quality AQ Index Pollutant
Not available.

Snow Depth

Station Depth Elevation

Earthquake Activity

City Distance Mag. Time & Date
Minimum magnitude displayed is 2.5.

Coastal Water Temperatures

Place Temperature

Stations

Nearby Weather Stations

Station Location Temp. Windchill Dew Point Humidity Wind Precip. Elev Updated Type